Time;durP1;ratioP1;P1;durP2;ratioP2;P2;SDS_P1;SDS_P2;PMS_P1;PMS_P2;Temp;Humidity;BMP_temperature;BMP_pressure;BME280_temperature;BME280_humidity;BME280_pressure;Samples;Min_cycle;Max_cycle;Signal;HPM_P1;HPM_P2
2021/03/27 00:00:57;;;;;;;2.53;0.88;;;18.00;81.30;;;;;;4987099;28;95385;-55
2021/03/27 00:03:59;;;;;;;2.15;0.85;;;18.10;81.30;;;;;;4988457;28;95871;-56
2021/03/27 00:07:21;;;;;;;1.55;1.20;;;18.10;81.30;;;;;;4990960;28;96178;-56
2021/03/27 00:09:58;;;;;;;4.57;1.15;;;18.10;81.20;;;;;;4974905;28;95899;-56
2021/03/27 00:12:45;;;;;;;0.73;0.65;;;18.10;81.10;;;;;;4990020;28;95825;-56
2021/03/27 00:15:23;;;;;;;1.83;0.93;;;18.10;81.10;;;;;;4986068;28;95633;-56
2021/03/27 00:18:12;;;;;;;5.35;0.95;;;18.10;81.10;;;;;;4987281;28;96130;-54
2021/03/27 00:21:10;;;;;;;4.15;1.67;;;18.20;81.00;;;;;;4985815;28;95554;-55
2021/03/27 00:24:02;;;;;;;3.80;0.90;;;18.10;81.00;;;;;;4991074;28;95792;-55
2021/03/27 00:26:35;;;;;;;1.63;0.90;;;18.20;81.00;;;;;;4987744;28;95827;-56
2021/03/27 00:29:13;;;;;;;1.77;1.10;;;18.20;80.90;;;;;;4990754;28;96729;-55
2021/03/27 00:31:56;;;;;;;1.38;0.77;;;18.20;80.80;;;;;;4987091;28;95632;-56
2021/03/27 00:34:36;;;;;;;1.40;0.82;;;18.20;80.80;;;;;;4990028;28;95582;-55
2021/03/27 00:37:15;;;;;;;1.67;1.02;;;18.20;81.10;;;;;;4985999;28;95780;-55
2021/03/27 00:39:51;;;;;;;1.23;0.85;;;18.20;80.70;;;;;;4988835;28;95988;-55
2021/03/27 00:42:32;;;;;;;3.35;1.25;;;18.30;80.60;;;;;;4987057;28;97091;-55
2021/03/27 00:45:17;;;;;;;1.30;1.00;;;18.30;80.60;;;;;;4989060;28;95883;-57
2021/03/27 00:48:03;;;;;;;1.95;0.88;;;18.30;80.60;;;;;;4991584;28;95872;-55
2021/03/27 00:50:53;;;;;;;0.63;0.63;;;18.30;80.40;;;;;;4985804;28;98280;-56
2021/03/27 00:53:47;;;;;;;1.17;0.88;;;18.30;80.40;;;;;;5004350;28;96000;-55
2021/03/27 00:56:30;;;;;;;3.00;1.23;;;18.30;80.50;;;;;;4987478;28;96026;-53
2021/03/27 00:59:29;;;;;;;0.73;0.60;;;18.30;80.30;;;;;;5005956;28;95509;-56
2021/03/27 01:02:15;;;;;;;2.50;0.82;;;18.30;80.40;;;;;;5000575;28;98284;-56
2021/03/27 01:05:08;;;;;;;2.00;0.95;;;18.30;80.20;;;;;;4986378;28;95654;-55
2021/03/27 01:07:58;;;;;;;0.90;0.60;;;18.30;80.30;;;;;;4988430;28;95817;-56
2021/03/27 01:11:01;;;;;;;1.70;0.90;;;18.30;80.30;;;;;;4984498;28;96022;-56
2021/03/27 01:13:52;;;;;;;1.33;0.77;;;18.40;80.20;;;;;;4984043;28;99816;-56
2021/03/27 01:17:13;;;;;;;2.08;1.08;;;18.40;80.30;;;;;;4984275;28;97915;-54
2021/03/27 01:19:55;;;;;;;1.67;0.68;;;18.40;80.30;;;;;;4998247;28;95734;-57
2021/03/27 01:22:28;;;;;;;2.17;1.02;;;18.30;80.20;;;;;;4985654;28;95942;-56
2021/03/27 01:25:00;;;;;;;1.13;0.88;;;18.30;80.30;;;;;;4989668;28;95874;-54
2021/03/27 01:27:43;;;;;;;2.42;1.42;;;18.40;80.20;;;;;;4983884;28;95918;-55
2021/03/27 01:30:22;;;;;;;;;;;18.40;80.30;;;;;;4988425;28;95739;-55
2021/03/27 01:33:19;;;;;;;0.88;0.70;;;18.30;80.20;;;;;;4984402;28;95838;-55
2021/03/27 01:35:54;;;;;;;3.72;1.00;;;18.40;80.20;;;;;;4991573;28;96055;-56
2021/03/27 01:38:46;;;;;;;1.33;0.57;;;18.40;80.20;;;;;;4987929;28;99359;-55
2021/03/27 01:41:30;;;;;;;0.87;0.43;;;18.40;80.20;;;;;;4984411;28;95481;-55
2021/03/27 01:44:09;;;;;;;1.35;0.82;;;18.40;80.20;;;;;;4984032;28;95760;-55
2021/03/27 01:46:54;;;;;;;1.25;0.77;;;18.40;80.30;;;;;;4988762;28;96312;-57
2021/03/27 01:49:39;;;;;;;2.35;0.65;;;18.40;80.20;;;;;;4987023;28;95493;-56
2021/03/27 01:52:50;;;;;;;1.80;0.70;;;18.40;80.30;;;;;;4992222;28;95827;-56
2021/03/27 01:55:58;;;;;;;3.20;0.90;;;18.40;80.10;;;;;;4981136;28;95718;-56
2021/03/27 01:58:40;;;;;;;1.17;0.60;;;18.40;80.10;;;;;;4943581;28;99922;-55
2021/03/27 02:01:23;;;;;;;1.27;0.70;;;18.50;80.00;;;;;;4944809;28;99799;-58
2021/03/27 02:04:07;;;;;;;1.65;1.02;;;18.50;79.90;;;;;;4983633;28;102620;-57
2021/03/27 02:06:52;;;;;;;2.80;0.82;;;18.50;80.00;;;;;;4986317;28;95314;-55
2021/03/27 02:09:29;;;;;;;1.40;0.68;;;18.50;79.90;;;;;;4982864;28;96985;-56
2021/03/27 02:12:15;;;;;;;2.33;0.80;;;18.50;79.80;;;;;;4985678;28;95622;-58
2021/03/27 02:14:55;;;;;;;1.10;0.70;;;18.50;79.70;;;;;;4984291;28;95942;-57
2021/03/27 02:17:45;;;;;;;1.75;0.50;;;18.60;79.70;;;;;;4983709;28;96115;-55
2021/03/27 02:20:33;;;;;;;1.58;0.65;;;18.60;79.70;;;;;;4983206;28;96450;-57
2021/03/27 02:23:18;;;;;;;2.88;0.70;;;18.70;79.60;;;;;;4984683;28;96005;-57
2021/03/27 02:25:51;;;;;;;2.65;0.70;;;18.70;79.50;;;;;;4978347;28;95943;-57
2021/03/27 02:28:42;;;;;;;1.95;1.05;;;18.70;79.50;;;;;;4986392;28;95417;-56
2021/03/27 02:31:21;;;;;;;2.63;0.80;;;18.70;79.40;;;;;;4981943;28;96111;-56
2021/03/27 02:33:58;;;;;;;2.47;0.60;;;18.80;79.30;;;;;;4982740;28;95826;-56
2021/03/27 02:36:50;;;;;;;0.60;0.60;;;18.80;79.20;;;;;;4982293;28;97978;-56
2021/03/27 02:39:33;;;;;;;1.13;0.60;;;18.90;79.20;;;;;;4985829;28;95289;-56
2021/03/27 02:42:15;;;;;;;1.63;0.80;;;18.90;79.10;;;;;;4977940;28;96025;-56
2021/03/27 02:45:18;;;;;;;1.98;0.73;;;18.90;79.00;;;;;;4986506;28;95859;-56
2021/03/27 02:48:12;;;;;;;0.80;0.50;;;19.00;78.90;;;;;;4977549;28;95933;-59
2021/03/27 02:50:55;;;;;;;1.20;0.70;;;19.00;78.80;;;;;;4982058;28;95844;-56
2021/03/27 02:53:42;;;;;;;;;;;19.10;78.70;;;;;;4987758;28;96004;-57
2021/03/27 02:56:38;;;;;;;1.38;0.50;;;19.10;78.50;;;;;;4983312;28;95793;-56
2021/03/27 02:59:28;;;;;;;1.23;0.70;;;19.10;78.50;;;;;;4984247;28;95908;-56
2021/03/27 03:02:12;;;;;;;3.95;0.80;;;19.10;78.20;;;;;;4980358;28;95786;-56
2021/03/27 03:04:49;;;;;;;1.38;0.75;;;19.20;78.20;;;;;;4983025;28;97159;-55
2021/03/27 03:07:48;;;;;;;2.33;0.95;;;19.20;78.10;;;;;;4979468;28;96264;-56
2021/03/27 03:10:38;;;;;;;1.58;0.80;;;19.20;77.90;;;;;;4985480;28;95671;-54
2021/03/27 03:13:30;;;;;;;1.20;0.70;;;19.20;77.80;;;;;;4982603;28;95449;-57
2021/03/27 03:16:06;;;;;;;;;;;19.30;77.80;;;;;;4985158;28;96837;-55
2021/03/27 03:18:45;;;;;;;2.28;0.80;;;19.30;77.60;;;;;;5000040;28;95897;-56
2021/03/27 03:21:28;;;;;;;1.77;0.88;;;19.30;77.50;;;;;;4984578;28;95944;-56
2021/03/27 03:24:06;;;;;;;3.30;1.13;;;19.30;77.30;;;;;;4983143;28;95833;-56
2021/03/27 03:27:15;;;;;;;3.58;0.88;;;19.40;77.30;;;;;;4981098;28;96087;-55
2021/03/27 03:30:32;;;;;;;1.55;0.90;;;19.40;77.20;;;;;;4979911;28;96518;-55
2021/03/27 03:33:15;;;;;;;3.45;1.13;;;19.40;77.10;;;;;;4976552;28;95413;-56
2021/03/27 03:36:07;;;;;;;2.20;1.00;;;19.40;77.10;;;;;;4985902;28;95647;-56
2021/03/27 03:39:00;;;;;;;5.53;1.13;;;19.50;77.20;;;;;;4981737;28;96936;-53
2021/03/27 03:41:39;;;;;;;1.05;0.90;;;19.50;77.00;;;;;;4982382;28;96396;-55
2021/03/27 03:44:33;;;;;;;2.53;1.17;;;19.50;76.90;;;;;;4982321;28;96002;-55
2021/03/27 03:47:16;;;;;;;2.47;0.90;;;19.60;76.80;;;;;;4988731;28;95925;-55
2021/03/27 03:50:19;;;;;;;2.85;1.05;;;19.60;76.70;;;;;;4989626;28;96365;-56
2021/03/27 03:53:02;;;;;;;2.55;1.10;;;19.60;76.60;;;;;;4983627;28;96132;-58
2021/03/27 03:55:59;;;;;;;2.80;0.95;;;19.70;76.70;;;;;;4988812;28;97003;-53
2021/03/27 03:58:35;;;;;;;2.05;0.80;;;19.70;76.50;;;;;;4997179;28;96120;-55
2021/03/27 04:01:09;;;;;;;1.60;0.90;;;19.70;76.50;;;;;;4981207;28;98453;-56
2021/03/27 04:03:55;;;;;;;1.00;0.90;;;19.80;76.40;;;;;;4985810;28;95751;-55
2021/03/27 04:06:28;;;;;;;1.52;0.70;;;19.70;76.40;;;;;;4990892;28;95443;-55
2021/03/27 04:09:19;;;;;;;7.82;1.65;;;19.80;76.50;;;;;;4983096;28;96008;-56
2021/03/27 04:12:24;;;;;;;3.03;1.35;;;19.70;76.50;;;;;;4990054;28;96472;-55
2021/03/27 04:15:18;;;;;;;1.63;0.80;;;19.80;76.70;;;;;;4985231;28;96728;-55
2021/03/27 04:18:24;;;;;;;2.65;1.05;;;19.80;76.60;;;;;;4990893;28;95281;-55
2021/03/27 04:21:12;;;;;;;1.90;0.90;;;19.80;76.60;;;;;;4987772;28;95412;-55
2021/03/27 04:23:47;;;;;;;2.22;1.05;;;19.80;76.50;;;;;;4986763;28;95994;-54
2021/03/27 04:26:51;;;;;;;2.55;1.33;;;19.80;76.60;;;;;;4989951;28;95424;-54
2021/03/27 04:29:56;;;;;;;3.22;1.30;;;19.80;76.50;;;;;;4983225;28;95247;-53
2021/03/27 04:32:45;;;;;;;2.47;1.10;;;19.80;76.60;;;;;;4989670;28;95953;-53
2021/03/27 04:35:44;;;;;;;1.58;1.30;;;19.80;76.60;;;;;;4986938;28;96008;-54
2021/03/27 04:38:37;;;;;;;2.03;1.10;;;19.80;76.60;;;;;;4986452;28;95751;-55
2021/03/27 04:41:35;;;;;;;2.00;1.20;;;19.80;76.60;;;;;;4986961;28;95730;-56
2021/03/27 04:44:14;;;;;;;3.10;1.20;;;19.80;76.50;;;;;;5001226;28;96264;-55
2021/03/27 04:46:53;;;;;;;3.55;1.77;;;19.80;76.50;;;;;;4985472;28;96446;-55
2021/03/27 04:49:37;;;;;;;1.50;1.35;;;19.80;76.50;;;;;;4989510;28;95859;-55
2021/03/27 04:52:12;;;;;;;4.18;1.52;;;19.80;76.60;;;;;;4986635;28;95823;-56
2021/03/27 04:55:14;;;;;;;2.50;1.15;;;19.80;76.50;;;;;;4990126;28;95677;-55
2021/03/27 04:58:06;;;;;;;3.58;1.15;;;19.80;76.40;;;;;;4987837;28;96644;-52
2021/03/27 05:00:52;;;;;;;2.25;1.00;;;19.80;76.50;;;;;;4987466;28;95902;-57
2021/03/27 05:03:29;;;;;;;2.03;1.00;;;19.90;76.50;;;;;;4984296;28;95619;-54
2021/03/27 05:06:21;;;;;;;1.85;0.90;;;19.90;76.50;;;;;;4985966;28;95529;-56
2021/03/27 05:09:22;;;;;;;2.03;1.10;;;19.90;76.30;;;;;;4991868;28;96460;-56
2021/03/27 05:12:04;;;;;;;2.75;1.10;;;19.90;76.20;;;;;;4981749;28;96164;-57
2021/03/27 05:15:17;;;;;;;4.32;1.80;;;19.90;76.10;;;;;;4989807;28;95917;-56
2021/03/27 05:17:59;;;;;;;2.63;1.20;;;19.90;76.10;;;;;;4985946;28;97195;-55
2021/03/27 05:20:39;;;;;;;5.57;1.98;;;19.90;76.00;;;;;;4988335;28;95919;-56
2021/03/27 05:23:15;;;;;;;2.20;1.67;;;19.90;75.90;;;;;;4986101;28;96407;-54
2021/03/27 05:25:45;;;;;;;3.97;1.88;;;19.90;75.80;;;;;;4992278;28;95535;-53
2021/03/27 05:28:42;;;;;;;3.75;1.83;;;19.90;76.00;;;;;;4985533;28;95681;-55
2021/03/27 05:31:39;;;;;;;3.42;1.80;;;19.90;75.90;;;;;;4988421;28;96127;-55
2021/03/27 05:34:09;;;;;;;2.65;1.80;;;19.90;75.80;;;;;;4986874;28;95735;-56
2021/03/27 05:37:16;;;;;;;3.38;1.90;;;19.90;75.80;;;;;;4986613;28;97631;-56
2021/03/27 05:40:01;;;;;;;5.32;2.33;;;19.90;75.80;;;;;;4988563;28;95656;-56
2021/03/27 05:42:34;;;;;;;5.15;2.33;;;19.90;75.70;;;;;;4980803;28;100513;-55
2021/03/27 05:46:14;;;;;;;5.47;2.65;;;19.90;75.60;;;;;;4988863;28;95492;-57
2021/03/27 05:49:09;;;;;;;3.13;2.22;;;19.90;75.60;;;;;;4986654;28;95255;-56
2021/03/27 05:52:05;;;;;;;3.80;2.58;;;19.90;75.60;;;;;;4984181;28;95824;-55
2021/03/27 05:55:16;;;;;;;4.72;2.42;;;19.90;75.50;;;;;;4985223;28;95931;-56
2021/03/27 05:58:22;;;;;;;6.13;3.38;;;20.00;75.60;;;;;;4985810;28;95540;-56
2021/03/27 06:01:18;;;;;;;9.10;4.15;;;19.90;75.40;;;;;;4987394;28;95646;-56
2021/03/27 06:03:50;;;;;;;5.75;3.58;;;20.00;75.50;;;;;;4980343;28;95467;-56
2021/03/27 06:06:54;;;;;;;10.15;4.78;;;20.00;75.60;;;;;;4989350;28;96579;-52
2021/03/27 06:10:07;;;;;;;7.63;4.68;;;19.90;75.40;;;;;;4965851;28;95862;-55
2021/03/27 06:12:45;;;;;;;8.80;5.03;;;20.00;75.30;;;;;;4987335;28;95735;-56
2021/03/27 06:16:05;;;;;;;11.15;4.50;;;20.00;75.40;;;;;;4986299;28;95845;-57
2021/03/27 06:19:15;;;;;;;11.13;5.28;;;20.00;75.40;;;;;;4985998;28;96251;-56
2021/03/27 06:22:41;;;;;;;7.43;4.25;;;20.00;75.20;;;;;;4999331;28;97185;-56
2021/03/27 06:25:38;;;;;;;7.97;4.18;;;20.00;75.20;;;;;;4972600;28;95641;-56
2021/03/27 06:28:18;;;;;;;6.82;3.90;;;20.00;75.30;;;;;;4986821;28;98413;-55
2021/03/27 06:31:12;;;;;;;7.13;3.97;;;20.00;75.40;;;;;;4985552;28;95734;-53
2021/03/27 06:34:00;;;;;;;10.20;4.50;;;20.00;75.30;;;;;;4976706;28;96445;-57
2021/03/27 06:36:46;;;;;;;8.13;4.53;;;20.00;75.10;;;;;;4987042;28;95675;-55
2021/03/27 06:39:22;;;;;;;7.18;3.95;;;20.00;75.30;;;;;;4985793;28;95652;-56
2021/03/27 06:42:44;;;;;;;8.20;4.25;;;20.00;75.30;;;;;;4998941;28;96672;-56
2021/03/27 06:45:43;;;;;;;8.30;4.70;;;20.00;75.30;;;;;;4974365;28;95953;-55
2021/03/27 06:48:35;;;;;;;7.10;3.85;;;20.00;75.30;;;;;;4989262;28;95664;-56
2021/03/27 06:51:40;;;;;;;8.20;4.18;;;20.00;75.30;;;;;;4985978;28;95407;-55
2021/03/27 06:54:36;;;;;;;8.23;4.30;;;20.00;75.30;;;;;;4985654;28;96424;-54
2021/03/27 06:57:24;;;;;;;4.70;3.53;;;20.00;75.40;;;;;;4985521;28;95827;-54
2021/03/27 07:00:29;;;;;;;5.95;3.42;;;20.00;75.40;;;;;;4984952;28;95808;-56
2021/03/27 07:03:16;;;;;;;6.75;4.22;;;20.00;75.60;;;;;;4986656;28;95410;-56
2021/03/27 07:06:31;;;;;;;6.82;3.25;;;20.00;75.40;;;;;;4985841;28;96191;-56
2021/03/27 07:09:36;;;;;;;7.40;3.08;;;20.00;75.50;;;;;;4976825;28;99007;-56
2021/03/27 07:12:26;;;;;;;5.15;3.60;;;20.00;75.50;;;;;;4986750;28;95973;-56
2021/03/27 07:15:21;;;;;;;7.70;4.13;;;20.00;75.50;;;;;;4988303;28;96442;-55
2021/03/27 07:18:02;;;;;;;5.40;3.53;;;20.00;75.40;;;;;;4984437;28;96629;-57
2021/03/27 07:20:46;;;;;;;5.85;3.47;;;20.00;75.50;;;;;;4990191;28;95801;-56
2021/03/27 07:23:54;;;;;;;8.05;3.50;;;20.00;75.60;;;;;;4991538;28;95812;-56
2021/03/27 07:26:42;;;;;;;5.40;3.28;;;20.00;75.60;;;;;;4986997;28;95657;-55
2021/03/27 07:29:51;;;;;;;5.32;3.00;;;20.00;75.50;;;;;;4986676;28;96085;-53
2021/03/27 07:32:44;;;;;;;7.57;3.95;;;20.00;75.50;;;;;;4963272;28;98301;-56
2021/03/27 07:35:33;;;;;;;7.32;4.85;;;20.00;75.40;;;;;;4990256;28;95801;-54
2021/03/27 07:38:26;;;;;;;15.63;7.75;;;20.00;75.40;;;;;;4988080;28;95279;-55
2021/03/27 07:41:25;;;;;;;15.48;8.45;;;19.90;75.30;;;;;;4991540;28;97602;-52
2021/03/27 07:44:04;;;;;;;16.50;8.65;;;19.90;75.40;;;;;;4990122;28;102679;-51
2021/03/27 07:46:33;;;;;;;13.35;7.35;;;19.90;75.30;;;;;;4991613;28;95835;-52
2021/03/27 07:49:40;;;;;;;15.43;8.27;;;19.90;75.40;;;;;;4989766;28;95399;-53
2021/03/27 07:52:34;;;;;;;13.55;6.97;;;19.90;75.50;;;;;;4987229;28;96509;-55
2021/03/27 07:55:26;;;;;;;12.55;7.70;;;19.90;75.40;;;;;;4992325;28;95755;-53
2021/03/27 07:58:12;;;;;;;12.50;7.18;;;19.90;75.50;;;;;;4984916;28;95658;-53
2021/03/27 08:00:56;;;;;;;12.32;6.72;;;20.00;75.60;;;;;;4987231;28;95895;-52
2021/03/27 08:03:29;;;;;;;11.13;6.63;;;19.90;75.50;;;;;;4988012;28;98634;-56
2021/03/27 08:06:21;;;;;;;12.55;7.50;;;19.90;75.50;;;;;;5005741;28;99508;-54
2021/03/27 08:09:10;;;;;;;;;;;19.90;75.50;;;;;;4987861;28;96086;-51
2021/03/27 08:12:11;;;;;;;17.20;9.40;;;19.90;75.70;;;;;;4991254;28;95971;-54
2021/03/27 08:15:34;;;;;;;16.48;9.45;;;19.90;75.60;;;;;;4985240;28;96597;-54
2021/03/27 08:18:32;;;;;;;17.05;8.85;;;19.90;75.70;;;;;;4984274;28;96050;-52
2021/03/27 08:21:14;;;;;;;16.23;8.20;;;19.90;75.70;;;;;;5005432;28;95864;-54
2021/03/27 08:24:11;;;;;;;14.13;8.25;;;19.80;75.70;;;;;;4983066;28;96054;-53
2021/03/27 08:26:50;;;;;;;15.23;8.38;;;19.90;75.80;;;;;;4989168;28;96058;-57
2021/03/27 08:29:44;;;;;;;13.73;7.82;;;19.80;75.60;;;;;;4986640;28;95589;-55
2021/03/27 08:32:49;;;;;;;14.43;8.63;;;19.80;75.70;;;;;;4986910;28;95952;-57
2021/03/27 08:35:31;;;;;;;15.00;7.80;;;19.80;75.70;;;;;;4984809;28;95316;-57
2021/03/27 08:38:19;;;;;;;12.90;7.50;;;19.90;75.70;;;;;;4988497;28;96696;-54
2021/03/27 08:41:19;;;;;;;13.45;7.22;;;19.80;75.70;;;;;;4983398;28;95710;-57
2021/03/27 08:44:27;;;;;;;16.00;8.75;;;19.90;75.80;;;;;;4985843;28;98078;-57
2021/03/27 08:47:31;;;;;;;13.77;7.30;;;19.80;75.70;;;;;;4990612;28;95753;-58
2021/03/27 08:50:20;;;;;;;13.10;7.80;;;19.80;75.70;;;;;;4984331;28;96730;-58
2021/03/27 08:53:25;;;;;;;11.63;7.78;;;19.80;75.70;;;;;;4992293;28;95526;-58
2021/03/27 08:56:10;;;;;;;15.13;7.75;;;19.80;75.80;;;;;;4988738;28;95756;-58
2021/03/27 08:59:03;;;;;;;16.42;6.70;;;19.80;75.70;;;;;;4991875;28;98217;-57
2021/03/27 09:01:57;;;;;;;10.55;6.55;;;19.80;75.80;;;;;;4991054;28;96160;-63
2021/03/27 09:04:46;;;;;;;12.15;7.18;;;19.80;75.80;;;;;;4990574;28;96027;-59
2021/03/27 09:07:19;;;;;;;13.13;7.70;;;19.80;75.80;;;;;;4989935;28;95519;-57
2021/03/27 09:10:13;;;;;;;10.57;6.13;;;19.80;75.80;;;;;;4993349;28;95842;-55
2021/03/27 09:12:55;;;;;;;12.80;6.63;;;19.80;75.80;;;;;;4987474;28;96108;-57
2021/03/27 09:16:12;;;;;;;12.60;6.75;;;19.80;75.80;;;;;;4986286;28;95672;-57
2021/03/27 09:18:59;;;;;;;10.52;6.53;;;19.80;76.00;;;;;;4975283;28;96135;-58
2021/03/27 09:21:44;;;;;;;11.35;6.90;;;19.70;75.90;;;;;;4990067;28;96011;-59
2021/03/27 09:24:44;;;;;;;12.07;6.60;;;19.70;75.90;;;;;;4987831;28;96113;-57
2021/03/27 09:27:32;;;;;;;10.20;6.80;;;19.70;75.90;;;;;;4988869;28;96569;-57
2021/03/27 09:30:18;;;;;;;9.85;6.63;;;19.70;75.90;;;;;;4990311;28;95889;-59
2021/03/27 09:33:01;;;;;;;10.88;6.18;;;19.70;75.90;;;;;;4984484;28;95781;-56
2021/03/27 09:36:14;;;;;;;10.60;5.97;;;19.70;76.00;;;;;;4994950;28;96536;-57
2021/03/27 09:39:10;;;;;;;10.15;6.60;;;19.70;76.00;;;;;;4986330;28;97011;-59
2021/03/27 09:42:19;;;;;;;10.73;6.50;;;19.70;76.10;;;;;;4982538;28;95570;-57
2021/03/27 09:44:58;;;;;;;13.70;6.75;;;19.60;76.00;;;;;;4986467;28;96108;-56
2021/03/27 09:47:50;;;;;;;11.82;6.20;;;19.60;76.10;;;;;;4984546;28;96980;-58
2021/03/27 09:50:40;;;;;;;10.40;5.85;;;19.60;76.10;;;;;;4988183;28;95823;-57
2021/03/27 09:53:44;;;;;;;11.00;6.57;;;19.60;76.10;;;;;;4982814;28;96066;-54
2021/03/27 09:56:25;;;;;;;7.75;5.07;;;19.60;76.30;;;;;;4989083;28;95898;-55
2021/03/27 09:59:11;;;;;;;7.82;5.00;;;19.60;76.40;;;;;;4986561;28;96951;-54
2021/03/27 10:01:52;;;;;;;7.50;4.65;;;19.50;76.40;;;;;;4989975;28;98121;-55
2021/03/27 10:04:46;;;;;;;8.93;4.55;;;19.50;76.40;;;;;;4982711;28;95682;-53
2021/03/27 10:07:29;;;;;;;8.43;5.25;;;19.50;76.50;;;;;;4991920;28;95843;-56
2021/03/27 10:10:25;;;;;;;6.38;4.30;;;19.50;76.60;;;;;;4995232;28;96673;-56
2021/03/27 10:13:14;;;;;;;7.22;4.15;;;19.40;76.50;;;;;;4987159;28;96020;-56
2021/03/27 10:16:01;;;;;;;9.18;4.40;;;19.40;76.60;;;;;;4988590;28;95576;-58
2021/03/27 10:18:38;;;;;;;8.57;4.35;;;19.40;76.70;;;;;;4983609;28;95716;-56
2021/03/27 10:21:37;;;;;;;6.90;4.07;;;19.30;76.60;;;;;;4985038;28;97169;-55
2021/03/27 10:24:29;;;;;;;5.82;4.00;;;19.30;76.60;;;;;;4974052;28;96066;-57
2021/03/27 10:27:07;;;;;;;8.63;4.65;;;19.30;76.60;;;;;;4988645;28;95719;-56
2021/03/27 10:29:42;;;;;;;6.78;3.97;;;19.30;76.60;;;;;;4991531;28;95684;-55
2021/03/27 10:32:23;;;;;;;8.60;4.57;;;19.30;76.70;;;;;;4989819;28;96179;-57
2021/03/27 10:35:01;;;;;;;6.32;3.70;;;19.20;76.60;;;;;;4980851;28;95524;-56
2021/03/27 10:38:02;;;;;;;7.68;4.03;;;19.20;76.70;;;;;;4983331;28;95761;-56
2021/03/27 10:40:46;;;;;;;8.47;4.00;;;19.20;76.70;;;;;;4961260;28;96790;-55
2021/03/27 10:43:37;;;;;;;6.43;3.85;;;19.20;77.10;;;;;;4984120;28;95581;-56
2021/03/27 10:46:18;;;;;;;6.03;3.58;;;19.20;77.40;;;;;;4977838;28;96095;-55
2021/03/27 10:48:57;;;;;;;5.78;3.97;;;19.40;77.20;;;;;;4992217;28;95707;-51
2021/03/27 10:51:44;;;;;;;4.80;3.78;;;19.70;76.90;;;;;;4992283;28;96014;-55
2021/03/27 10:54:40;;;;;;;5.75;3.45;;;19.90;76.30;;;;;;4988656;28;96568;-53
2021/03/27 10:57:37;;;;;;;8.13;4.00;;;20.10;75.50;;;;;;4994038;28;95997;-54
2021/03/27 11:00:26;;;;;;;3.63;3.00;;;20.30;75.10;;;;;;4985787;28;95783;-52
2021/03/27 11:03:14;;;;;;;3.83;2.83;;;20.40;74.60;;;;;;4990435;28;96107;-53
2021/03/27 11:06:05;;;;;;;6.00;3.28;;;20.60;74.50;;;;;;5003690;28;96284;-49
2021/03/27 11:09:11;;;;;;;6.10;3.38;;;20.70;74.10;;;;;;4917803;28;2481986;-54
2021/03/27 11:12:01;;;;;;;4.78;3.30;;;20.90;73.80;;;;;;4988673;28;95408;-49
2021/03/27 11:14:53;;;;;;;4.27;3.03;;;21.00;73.40;;;;;;4992459;28;95543;-52
2021/03/27 11:17:32;;;;;;;;;;;21.10;73.10;;;;;;4988256;28;96491;-54
2021/03/27 11:20:21;;;;;;;5.82;3.08;;;21.20;72.80;;;;;;4994171;28;95723;-58
2021/03/27 11:23:18;;;;;;;5.20;3.10;;;21.30;71.80;;;;;;4986278;28;96217;-59
2021/03/27 11:26:16;;;;;;;5.50;3.53;;;21.30;72.20;;;;;;4995620;28;95850;-63
2021/03/27 11:28:52;;;;;;;3.88;3.00;;;21.40;72.10;;;;;;4991730;28;96398;-57
2021/03/27 11:31:43;;;;;;;5.68;3.22;;;21.50;72.00;;;;;;4987535;28;95633;-56
2021/03/27 11:34:32;;;;;;;14.30;5.68;;;21.50;71.90;;;;;;4996669;28;95771;-53
2021/03/27 11:37:04;;;;;;;11.98;5.88;;;21.20;66.80;;;;;;4987561;28;95745;-50
2021/03/27 11:39:48;;;;;;;8.63;6.68;;;20.80;65.50;;;;;;4988402;28;96138;-52
2021/03/27 11:42:37;;;;;;;9.45;5.90;;;20.20;65.50;;;;;;4989679;28;95852;-47
2021/03/27 11:45:34;;;;;;;13.20;5.85;;;19.90;67.60;;;;;;4988524;28;98118;-49
2021/03/27 11:48:20;;;;;;;9.27;5.47;;;19.50;65.50;;;;;;4984532;28;95878;-50
2021/03/27 11:51:17;;;;;;;12.40;5.40;;;19.40;70.50;;;;;;4989985;28;96210;-54
2021/03/27 11:53:56;;;;;;;;;;;19.60;68.00;;;;;;4989987;28;95750;-54
2021/03/27 11:56:56;;;;;;;11.27;5.28;;;19.80;67.90;;;;;;4995285;28;95287;-50
2021/03/27 12:03:13;;;;;;;24.35;12.05;;;19.80;66.10;;;;;;4994771;28;99610;-45
2021/03/27 12:06:05;;;;;;;20.38;11.48;;;19.60;66.70;;;;;;4986941;28;95717;-53
2021/03/27 12:08:48;;;;;;;22.58;11.75;;;19.60;66.80;;;;;;4987149;28;95366;-47
2021/03/27 12:11:53;;;;;;;18.92;9.48;;;19.70;66.20;;;;;;4993539;28;96022;-49
2021/03/27 12:14:49;;;;;;;20.85;9.43;;;19.60;66.10;;;;;;4987504;28;96964;-50
2021/03/27 12:17:36;;;;;;;19.25;9.65;;;19.70;66.40;;;;;;4985542;28;95785;-52
2021/03/27 12:20:34;;;;;;;15.27;9.38;;;19.60;67.00;;;;;;4987093;28;96503;-50
2021/03/27 12:23:30;;;;;;;16.90;9.52;;;19.60;66.30;;;;;;4985845;28;101898;-56
2021/03/27 12:26:11;;;;;;;12.80;8.35;;;19.60;66.40;;;;;;4987703;28;97023;-49
2021/03/27 12:29:12;;;;;;;21.83;9.10;;;19.60;66.00;;;;;;4979203;28;95852;-51
2021/03/27 12:32:31;;;;;;;17.52;10.15;;;19.50;65.60;;;;;;4986528;28;95940;-53
2021/03/27 12:35:23;;;;;;;19.27;11.25;;;19.60;66.40;;;;;;4985417;28;95891;-48
2021/03/27 12:38:10;;;;;;;20.95;12.05;;;19.50;65.90;;;;;;4986646;28;96406;-52
2021/03/27 12:40:58;;;;;;;22.58;13.70;;;19.50;65.70;;;;;;4978722;28;95686;-48
2021/03/27 12:43:32;;;;;;;20.67;12.93;;;19.40;65.80;;;;;;4986688;28;95835;-50
2021/03/27 12:46:37;;;;;;;24.38;13.52;;;19.40;65.90;;;;;;4985421;28;95947;-50
2021/03/27 12:49:38;;;;;;;22.48;12.70;;;19.40;65.80;;;;;;4972332;28;96443;-56
2021/03/27 12:52:23;;;;;;;20.85;10.98;;;19.40;65.90;;;;;;4991793;28;95755;-58
2021/03/27 12:55:29;;;;;;;18.30;9.95;;;19.40;65.80;;;;;;4985006;28;95939;-56
2021/03/27 12:58:23;;;;;;;17.05;10.40;;;19.40;65.80;;;;;;4986338;28;95701;-51
2021/03/27 13:01:07;;;;;;;19.10;9.13;;;19.30;65.80;;;;;;4982355;28;96600;-51
2021/03/27 13:04:13;;;;;;;19.67;10.50;;;19.30;65.80;;;;;;4986377;28;95898;-48
2021/03/27 13:07:21;;;;;;;15.73;9.80;;;19.30;66.00;;;;;;4983528;28;95958;-50
2021/03/27 13:10:11;;;;;;;18.80;10.65;;;19.30;66.40;;;;;;4986871;28;96264;-52
2021/03/27 13:13:12;;;;;;;23.45;11.02;;;19.30;66.30;;;;;;4990215;28;95875;-57
2021/03/27 13:15:50;;;;;;;15.60;10.13;;;19.30;66.10;;;;;;4970127;28;97164;-55
2021/03/27 13:18:42;;;;;;;19.77;10.88;;;19.30;66.50;;;;;;4985156;28;95708;-53
2021/03/27 13:21:34;;;;;;;15.60;9.73;;;19.30;66.20;;;;;;4986307;28;95252;-56
2021/03/27 13:24:15;;;;;;;21.13;11.98;;;19.30;66.20;;;;;;4987224;28;96083;-52
2021/03/27 13:26:47;;;;;;;16.88;9.48;;;19.30;66.30;;;;;;4980848;28;96065;-50
2021/03/27 13:29:34;;;;;;;18.27;10.80;;;19.30;66.30;;;;;;4985550;28;95823;-48
2021/03/27 13:32:17;;;;;;;24.05;11.65;;;19.30;66.30;;;;;;4980352;28;95770;-49
2021/03/27 13:35:25;;;;;;;30.25;13.73;;;19.30;66.40;;;;;;4986583;28;96801;-49
2021/03/27 13:38:04;;;;;;;26.83;13.38;;;19.30;66.20;;;;;;4948947;28;97225;-51
2021/03/27 13:40:38;;;;;;;24.27;15.00;;;19.10;66.30;;;;;;4989991;28;95709;-54
2021/03/27 13:43:18;;;;;;;28.48;15.80;;;19.10;66.40;;;;;;4985814;28;95507;-46
2021/03/27 13:46:30;;;;;;;26.80;15.68;;;19.00;66.60;;;;;;4985189;28;96849;-49
2021/03/27 13:49:30;;;;;;;30.45;14.15;;;19.10;67.00;;;;;;4984728;28;95938;-54
2021/03/27 13:52:34;;;;;;;34.05;14.48;;;19.10;66.60;;;;;;4988178;28;95530;-53
2021/03/27 13:55:29;;;;;;;16.35;10.05;;;19.10;66.70;;;;;;4983845;28;96083;-53
2021/03/27 13:58:35;;;;;;;22.92;11.00;;;19.10;66.50;;;;;;4980881;28;98185;-49
2021/03/27 14:01:19;;;;;;;18.65;11.82;;;19.10;66.50;;;;;;4986991;28;95987;-48
2021/03/27 14:04:03;;;;;;;25.38;13.32;;;19.10;66.40;;;;;;4982984;28;97718;-56
2021/03/27 14:06:46;;;;;;;31.38;16.48;;;19.10;66.40;;;;;;4981787;28;97983;-52
2021/03/27 14:09:22;;;;;;;29.40;17.83;;;19.00;66.20;;;;;;4986466;28;96331;-52
2021/03/27 14:11:58;;;;;;;29.80;17.95;;;19.00;66.20;;;;;;4982001;28;95840;-48
2021/03/27 14:14:39;;;;;;;32.97;16.60;;;19.00;66.30;;;;;;4978939;28;95865;-52
2021/03/27 14:17:12;;;;;;;29.63;17.60;;;19.00;66.10;;;;;;4982993;28;96031;-49
2021/03/27 14:20:14;;;;;;;32.83;18.92;;;18.90;66.00;;;;;;5000490;28;95891;-49
2021/03/27 14:22:43;;;;;;;;;;;18.90;65.80;;;;;;4978418;28;98456;-54
2021/03/27 14:25:32;;;;;;;28.50;15.80;;;19.00;65.90;;;;;;4987276;28;95815;-53
2021/03/27 14:28:26;;;;;;;33.53;18.63;;;18.90;65.60;;;;;;4982944;28;95282;-50
2021/03/27 14:31:25;;;;;;;26.00;13.32;;;18.80;64.30;;;;;;4983298;28;96640;-55
2021/03/27 14:34:13;;;;;;;22.73;12.05;;;18.60;65.90;;;;;;4981657;28;95822;-55
2021/03/27 14:36:58;;;;;;;23.75;11.98;;;18.60;66.20;;;;;;4984246;28;95314;-53
2021/03/27 14:39:39;;;;;;;18.52;11.27;;;18.70;66.00;;;;;;4980797;28;95773;-57
2021/03/27 14:42:44;;;;;;;24.10;12.65;;;18.70;65.70;;;;;;4983109;28;97177;-54
2021/03/27 14:45:13;;;;;;;20.60;12.82;;;18.70;65.40;;;;;;4993736;28;96051;-53